sensor_id;sensor_type;location;lat;lon;timestamp;pressure;altitude;pressure_sealevel;temperature;humidity
6132;BME280;3097;42.692;23.278;2023-02-14T00:01:16;96398.41;;;3.21;67.96
6132;BME280;3097;42.692;23.278;2023-02-14T00:03:41;96442.56;;;3.59;67.81
6132;BME280;3097;42.692;23.278;2023-02-14T00:06:09;96448.03;;;3.64;67.70
6132;BME280;3097;42.692;23.278;2023-02-14T00:08:35;96442.72;;;3.57;68.08
6132;BME280;3097;42.692;23.278;2023-02-14T00:11:01;96405.47;;;3.37;67.84
6132;BME280;3097;42.692;23.278;2023-02-14T00:13:27;96443.25;;;3.61;68.04
6132;BME280;3097;42.692;23.278;2023-02-14T00:15:53;96445.13;;;3.59;68.02
6132;BME280;3097;42.692;23.278;2023-02-14T00:18:19;96428.00;;;3.41;68.20
6132;BME280;3097;42.692;23.278;2023-02-14T00:20:44;96451.31;;;3.46;68.58
6132;BME280;3097;42.692;23.278;2023-02-14T00:23:10;96439.78;;;3.52;68.39
6132;BME280;3097;42.692;23.278;2023-02-14T00:25:35;96409.66;;;3.28;68.94
6132;BME280;3097;42.692;23.278;2023-02-14T00:28:01;96434.13;;;3.58;68.99
6132;BME280;3097;42.692;23.278;2023-02-14T00:30:26;96448.38;;;3.51;69.28
6132;BME280;3097;42.692;23.278;2023-02-14T00:32:52;96447.66;;;3.59;69.47
6132;BME280;3097;42.692;23.278;2023-02-14T00:35:17;96441.34;;;3.63;69.47
6132;BME280;3097;42.692;23.278;2023-02-14T00:37:44;96437.72;;;3.65;69.90
6132;BME280;3097;42.692;23.278;2023-02-14T00:40:11;96440.63;;;3.70;70.03
6132;BME280;3097;42.692;23.278;2023-02-14T00:42:37;96427.63;;;3.73;69.71
6132;BME280;3097;42.692;23.278;2023-02-14T00:45:02;96446.16;;;3.75;69.74
6132;BME280;3097;42.692;23.278;2023-02-14T00:47:27;96440.47;;;3.81;69.59
6132;BME280;3097;42.692;23.278;2023-02-14T00:49:53;96444.47;;;3.84;69.67
6132;BME280;3097;42.692;23.278;2023-02-14T00:52:18;96430.75;;;3.95;69.25
6132;BME280;3097;42.692;23.278;2023-02-14T00:54:44;96428.34;;;3.93;69.05
6132;BME280;3097;42.692;23.278;2023-02-14T00:57:09;96430.38;;;3.89;69.46
6132;BME280;3097;42.692;23.278;2023-02-14T00:59:35;96426.81;;;4.00;69.22
6132;BME280;3097;42.692;23.278;2023-02-14T01:02:00;96418.09;;;4.03;68.92
6132;BME280;3097;42.692;23.278;2023-02-14T01:04:25;96422.38;;;4.02;68.91
6132;BME280;3097;42.692;23.278;2023-02-14T01:06:51;96419.72;;;3.94;68.97
6132;BME280;3097;42.692;23.278;2023-02-14T01:09:16;96409.25;;;3.97;68.57
6132;BME280;3097;42.692;23.278;2023-02-14T01:11:42;96404.69;;;3.91;68.51
6132;BME280;3097;42.692;23.278;2023-02-14T01:14:07;96410.88;;;3.98;68.59
6132;BME280;3097;42.692;23.278;2023-02-14T01:16:33;96378.72;;;3.78;68.72
6132;BME280;3097;42.692;23.278;2023-02-14T01:18:59;96416.91;;;3.97;68.96
6132;BME280;3097;42.692;23.278;2023-02-14T01:21:27;96416.16;;;3.87;69.16
6132;BME280;3097;42.692;23.278;2023-02-14T01:23:55;96413.97;;;3.92;69.28
6132;BME280;3097;42.692;23.278;2023-02-14T01:26:22;96408.44;;;3.97;68.99
6132;BME280;3097;42.692;23.278;2023-02-14T01:28:48;96401.59;;;3.97;68.94
6132;BME280;3097;42.692;23.278;2023-02-14T01:31:19;96403.84;;;4.00;68.76
6132;BME280;3097;42.692;23.278;2023-02-14T01:33:46;96400.66;;;3.98;68.70
6132;BME280;3097;42.692;23.278;2023-02-14T01:36:26;96395.03;;;3.95;68.84
6132;BME280;3097;42.692;23.278;2023-02-14T01:38:55;96387.28;;;3.86;69.02
6132;BME280;3097;42.692;23.278;2023-02-14T01:41:21;96386.44;;;3.96;69.00
6132;BME280;3097;42.692;23.278;2023-02-14T01:44:53;96373.06;;;3.84;69.10
6132;BME280;3097;42.692;23.278;2023-02-14T01:46:53;96377.31;;;3.93;68.63
6132;BME280;3097;42.692;23.278;2023-02-14T01:49:26;96375.34;;;3.87;68.73
6132;BME280;3097;42.692;23.278;2023-02-14T01:54:30;96320.47;;;3.56;68.94
6132;BME280;3097;42.692;23.278;2023-02-14T01:57:01;96321.72;;;3.52;68.93
6132;BME280;3097;42.692;23.278;2023-02-14T01:59:33;96369.88;;;3.82;68.81
6132;BME280;3097;42.692;23.278;2023-02-14T02:02:00;96374.19;;;3.72;69.60
6132;BME280;3097;42.692;23.278;2023-02-14T02:04:31;96369.06;;;3.81;69.19
6132;BME280;3097;42.692;23.278;2023-02-14T02:07:02;96369.34;;;3.78;68.99
6132;BME280;3097;42.692;23.278;2023-02-14T02:09:35;96364.66;;;3.74;69.30
6132;BME280;3097;42.692;23.278;2023-02-14T02:12:02;96372.13;;;3.85;68.99
6132;BME280;3097;42.692;23.278;2023-02-14T02:14:28;96357.75;;;3.84;69.00
6132;BME280;3097;42.692;23.278;2023-02-14T02:34:39;96304.47;;;3.63;68.58
6132;BME280;3097;42.692;23.278;2023-02-14T02:40:09;96331.69;;;3.90;68.57
6132;BME280;3097;42.692;23.278;2023-02-14T02:45:40;96318.63;;;3.93;67.79
6132;BME280;3097;42.692;23.278;2023-02-14T02:48:53;96325.25;;;3.86;68.35
6132;BME280;3097;42.692;23.278;2023-02-14T02:51:34;96325.56;;;3.83;68.21
6132;BME280;3097;42.692;23.278;2023-02-14T02:54:32;96321.09;;;3.85;68.25
6132;BME280;3097;42.692;23.278;2023-02-14T02:57:00;96325.84;;;3.80;68.34
6132;BME280;3097;42.692;23.278;2023-02-14T02:59:38;96326.78;;;3.79;68.26
6132;BME280;3097;42.692;23.278;2023-02-14T03:02:12;96324.53;;;3.76;68.24
6132;BME280;3097;42.692;23.278;2023-02-14T03:04:44;96330.84;;;3.72;68.61
6132;BME280;3097;42.692;23.278;2023-02-14T03:07:37;96328.56;;;3.69;68.91
6132;BME280;3097;42.692;23.278;2023-02-14T03:10:14;96335.72;;;3.65;69.00
6132;BME280;3097;42.692;23.278;2023-02-14T03:22:04;96318.16;;;3.62;69.46
6132;BME280;3097;42.692;23.278;2023-02-14T03:27:11;96308.84;;;3.71;69.01
6132;BME280;3097;42.692;23.278;2023-02-14T03:30:02;96301.19;;;3.71;68.94
6132;BME280;3097;42.692;23.278;2023-02-14T03:32:37;96293.19;;;3.66;68.67
6132;BME280;3097;42.692;23.278;2023-02-14T03:35:37;96294.66;;;3.68;69.05
6132;BME280;3097;42.692;23.278;2023-02-14T03:38:10;96298.56;;;3.63;68.83
6132;BME280;3097;42.692;23.278;2023-02-14T03:40:49;96310.50;;;3.62;68.86
6132;BME280;3097;42.692;23.278;2023-02-14T03:43:25;96311.88;;;3.57;68.84
6132;BME280;3097;42.692;23.278;2023-02-14T03:46:07;96311.88;;;3.57;68.98
6132;BME280;3097;42.692;23.278;2023-02-14T03:48:36;96294.59;;;3.50;68.83
6132;BME280;3097;42.692;23.278;2023-02-14T03:51:03;96297.25;;;3.59;68.79
6132;BME280;3097;42.692;23.278;2023-02-14T03:53:34;96298.06;;;3.59;68.75
6132;BME280;3097;42.692;23.278;2023-02-14T03:56:21;96293.94;;;3.48;69.05
6132;BME280;3097;42.692;23.278;2023-02-14T03:58:53;96291.63;;;3.55;68.69
6132;BME280;3097;42.692;23.278;2023-02-14T04:03:47;96285.22;;;3.51;68.80
6132;BME280;3097;42.692;23.278;2023-02-14T04:06:16;96223.44;;;3.12;68.90
6132;BME280;3097;42.692;23.278;2023-02-14T04:08:42;96274.06;;;3.52;68.77
6132;BME280;3097;42.692;23.278;2023-02-14T04:11:07;96271.56;;;3.42;68.92
6132;BME280;3097;42.692;23.278;2023-02-14T04:13:34;96280.03;;;3.43;69.21
6132;BME280;3097;42.692;23.278;2023-02-14T04:16:01;96254.72;;;3.32;69.21
6132;BME280;3097;42.692;23.278;2023-02-14T04:18:26;96278.94;;;3.45;69.26
6132;BME280;3097;42.692;23.278;2023-02-14T04:21:10;96276.41;;;3.45;69.21
6132;BME280;3097;42.692;23.278;2023-02-14T04:23:36;96272.38;;;3.43;69.20
6132;BME280;3097;42.692;23.278;2023-02-14T04:26:01;96247.16;;;3.22;68.78
6132;BME280;3097;42.692;23.278;2023-02-14T04:28:28;96278.19;;;3.35;69.29
6132;BME280;3097;42.692;23.278;2023-02-14T04:30:54;96285.53;;;3.38;69.23
6132;BME280;3097;42.692;23.278;2023-02-14T04:33:19;96280.06;;;3.33;69.39
6132;BME280;3097;42.692;23.278;2023-02-14T04:35:45;96277.25;;;3.36;69.48
6132;BME280;3097;42.692;23.278;2023-02-14T04:38:10;96275.06;;;3.41;69.21
6132;BME280;3097;42.692;23.278;2023-02-14T04:40:35;96280.44;;;3.38;69.37
6132;BME280;3097;42.692;23.278;2023-02-14T04:43:01;96258.78;;;3.25;69.25
6132;BME280;3097;42.692;23.278;2023-02-14T04:45:28;96263.03;;;3.34;69.41
6132;BME280;3097;42.692;23.278;2023-02-14T04:47:54;96253.59;;;3.44;68.92
6132;BME280;3097;42.692;23.278;2023-02-14T04:50:20;96261.09;;;3.45;68.65
6132;BME280;3097;42.692;23.278;2023-02-14T04:52:47;96250.91;;;3.45;68.62
6132;BME280;3097;42.692;23.278;2023-02-14T04:55:13;96244.84;;;3.46;68.81
6132;BME280;3097;42.692;23.278;2023-02-14T04:57:38;96250.19;;;3.53;68.26
6132;BME280;3097;42.692;23.278;2023-02-14T05:00:05;96231.06;;;3.39;68.11
6132;BME280;3097;42.692;23.278;2023-02-14T05:02:30;96251.28;;;3.50;68.57
6132;BME280;3097;42.692;23.278;2023-02-14T05:04:56;96259.19;;;3.47;68.76
6132;BME280;3097;42.692;23.278;2023-02-14T05:07:21;96256.38;;;3.50;68.81
6132;BME280;3097;42.692;23.278;2023-02-14T05:09:47;96251.94;;;3.53;68.48
6132;BME280;3097;42.692;23.278;2023-02-14T05:12:12;96251.94;;;3.53;68.13
6132;BME280;3097;42.692;23.278;2023-02-14T05:14:37;96252.50;;;3.46;68.17
6132;BME280;3097;42.692;23.278;2023-02-14T05:17:03;96246.88;;;3.43;68.18
6132;BME280;3097;42.692;23.278;2023-02-14T05:19:28;96259.72;;;3.51;68.43
6132;BME280;3097;42.692;23.278;2023-02-14T05:21:54;96250.56;;;3.58;68.07
6132;BME280;3097;42.692;23.278;2023-02-14T05:24:19;96242.03;;;3.49;67.67
6132;BME280;3097;42.692;23.278;2023-02-14T05:26:44;96252.44;;;3.56;67.84
6132;BME280;3097;42.692;23.278;2023-02-14T05:29:10;96254.19;;;3.56;67.78
6132;BME280;3097;42.692;23.278;2023-02-14T05:31:35;96259.69;;;3.61;67.89
6132;BME280;3097;42.692;23.278;2023-02-14T05:34:01;96255.44;;;3.52;68.08
6132;BME280;3097;42.692;23.278;2023-02-14T05:36:26;96230.25;;;3.39;68.15
6132;BME280;3097;42.692;23.278;2023-02-14T05:38:52;96232.00;;;3.38;68.27
6132;BME280;3097;42.692;23.278;2023-02-14T05:41:17;96246.25;;;3.59;68.20
6132;BME280;3097;42.692;23.278;2023-02-14T05:43:42;96248.16;;;3.57;68.22
6132;BME280;3097;42.692;23.278;2023-02-14T05:46:08;96244.00;;;3.73;67.87
6132;BME280;3097;42.692;23.278;2023-02-14T05:48:33;96250.41;;;3.77;67.58
6132;BME280;3097;42.692;23.278;2023-02-14T05:51:03;96241.75;;;3.70;67.72
6132;BME280;3097;42.692;23.278;2023-02-14T05:53:29;96244.50;;;3.77;67.18
6132;BME280;3097;42.692;23.278;2023-02-14T05:55:54;96247.66;;;3.71;67.45
6132;BME280;3097;42.692;23.278;2023-02-14T05:58:20;96132.59;;;3.03;67.47
6132;BME280;3097;42.692;23.278;2023-02-14T06:00:45;96247.44;;;3.82;67.65
6132;BME280;3097;42.692;23.278;2023-02-14T06:03:11;96241.09;;;3.86;67.55
6132;BME280;3097;42.692;23.278;2023-02-14T06:05:36;96236.78;;;3.86;67.67
6132;BME280;3097;42.692;23.278;2023-02-14T06:08:01;96235.50;;;3.82;67.74
6132;BME280;3097;42.692;23.278;2023-02-14T06:10:27;96233.75;;;3.83;67.65
6132;BME280;3097;42.692;23.278;2023-02-14T06:12:53;96249.16;;;3.99;67.25
6132;BME280;3097;42.692;23.278;2023-02-14T06:15:19;96260.69;;;4.03;67.63
6132;BME280;3097;42.692;23.278;2023-02-14T06:17:49;96258.22;;;4.11;67.16
6132;BME280;3097;42.692;23.278;2023-02-14T06:20:15;96254.00;;;4.20;66.54
6132;BME280;3097;42.692;23.278;2023-02-14T06:22:41;96258.28;;;4.19;65.96
6132;BME280;3097;42.692;23.278;2023-02-14T06:25:06;96225.94;;;4.02;66.28
6132;BME280;3097;42.692;23.278;2023-02-14T06:27:32;96258.34;;;4.27;66.53
6132;BME280;3097;42.692;23.278;2023-02-14T06:29:57;96254.41;;;4.33;66.08
6132;BME280;3097;42.692;23.278;2023-02-14T06:32:23;96266.06;;;4.36;66.22
6132;BME280;3097;42.692;23.278;2023-02-14T06:34:49;96248.78;;;4.29;66.13
6132;BME280;3097;42.692;23.278;2023-02-14T06:37:14;96245.47;;;4.37;66.30
6132;BME280;3097;42.692;23.278;2023-02-14T06:39:39;96254.31;;;4.43;66.04
6132;BME280;3097;42.692;23.278;2023-02-14T06:42:05;96257.56;;;4.53;66.26
6132;BME280;3097;42.692;23.278;2023-02-14T06:44:30;96244.16;;;4.51;65.87
6132;BME280;3097;42.692;23.278;2023-02-14T06:46:56;96254.78;;;4.64;65.42
6132;BME280;3097;42.692;23.278;2023-02-14T06:49:21;96249.53;;;4.74;65.46
6132;BME280;3097;42.692;23.278;2023-02-14T06:51:48;96238.13;;;4.86;64.52
6132;BME280;3097;42.692;23.278;2023-02-14T06:54:14;96241.22;;;4.97;64.78
6132;BME280;3097;42.692;23.278;2023-02-14T06:56:39;96243.16;;;4.95;64.39
6132;BME280;3097;42.692;23.278;2023-02-14T06:59:05;96241.97;;;4.90;64.67
6132;BME280;3097;42.692;23.278;2023-02-14T07:01:30;96212.44;;;4.61;65.31
6132;BME280;3097;42.692;23.278;2023-02-14T07:03:56;96236.19;;;4.80;65.29
6132;BME280;3097;42.692;23.278;2023-02-14T07:06:21;96239.38;;;4.82;65.82
6132;BME280;3097;42.692;23.278;2023-02-14T07:08:46;96218.28;;;4.72;65.63
6132;BME280;3097;42.692;23.278;2023-02-14T07:11:12;96230.31;;;4.87;66.07
6132;BME280;3097;42.692;23.278;2023-02-14T07:13:37;96226.13;;;4.78;66.97
6132;BME280;3097;42.692;23.278;2023-02-14T07:16:03;96231.66;;;4.74;67.28
6132;BME280;3097;42.692;23.278;2023-02-14T07:18:28;96239.03;;;4.77;67.42
6132;BME280;3097;42.692;23.278;2023-02-14T07:20:54;96215.09;;;4.52;67.68
6132;BME280;3097;42.692;23.278;2023-02-14T07:23:19;96243.66;;;4.73;68.19
6132;BME280;3097;42.692;23.278;2023-02-14T07:25:45;96241.53;;;4.68;68.77
6132;BME280;3097;42.692;23.278;2023-02-14T07:28:10;96247.72;;;4.58;69.80
6132;BME280;3097;42.692;23.278;2023-02-14T07:30:36;96242.84;;;4.47;70.78
6132;BME280;3097;42.692;23.278;2023-02-14T07:33:01;96244.44;;;4.48;71.18
6132;BME280;3097;42.692;23.278;2023-02-14T07:35:26;96246.88;;;4.32;72.25
6132;BME280;3097;42.692;23.278;2023-02-14T07:37:52;96241.72;;;4.23;72.96
6132;BME280;3097;42.692;23.278;2023-02-14T07:40:18;96215.38;;;3.97;73.98
6132;BME280;3097;42.692;23.278;2023-02-14T07:42:44;96158.84;;;3.48;74.64
6132;BME280;3097;42.692;23.278;2023-02-14T07:45:09;96245.41;;;4.03;75.40
6132;BME280;3097;42.692;23.278;2023-02-14T07:47:35;96225.13;;;4.02;75.21
6132;BME280;3097;42.692;23.278;2023-02-14T07:50:00;96255.66;;;4.11;75.26
6132;BME280;3097;42.692;23.278;2023-02-14T07:52:26;96253.53;;;4.07;75.49
6132;BME280;3097;42.692;23.278;2023-02-14T07:54:51;96263.13;;;4.05;75.80
6132;BME280;3097;42.692;23.278;2023-02-14T07:57:17;96262.38;;;4.12;75.78
6132;BME280;3097;42.692;23.278;2023-02-14T07:59:42;96257.28;;;4.12;75.97
6132;BME280;3097;42.692;23.278;2023-02-14T08:02:10;96243.78;;;4.02;75.73
6132;BME280;3097;42.692;23.278;2023-02-14T08:04:36;96264.47;;;4.17;75.40
6132;BME280;3097;42.692;23.278;2023-02-14T08:07:01;96264.34;;;4.01;76.31
6132;BME280;3097;42.692;23.278;2023-02-14T08:09:27;96268.72;;;4.08;76.57
6132;BME280;3097;42.692;23.278;2023-02-14T08:11:54;96281.03;;;4.13;75.92
6132;BME280;3097;42.692;23.278;2023-02-14T08:14:39;96276.00;;;4.03;76.58
6132;BME280;3097;42.692;23.278;2023-02-14T08:17:04;96283.06;;;3.92;77.02
6132;BME280;3097;42.692;23.278;2023-02-14T08:19:32;96278.13;;;4.08;76.76
6132;BME280;3097;42.692;23.278;2023-02-14T08:21:58;96275.50;;;4.17;76.25
6132;BME280;3097;42.692;23.278;2023-02-14T08:24:23;96272.94;;;4.17;76.14
6132;BME280;3097;42.692;23.278;2023-02-14T08:26:49;96288.41;;;4.16;75.75
6132;BME280;3097;42.692;23.278;2023-02-14T08:29:14;96280.25;;;4.12;76.39
6132;BME280;3097;42.692;23.278;2023-02-14T08:31:39;96281.69;;;4.33;75.89
6132;BME280;3097;42.692;23.278;2023-02-14T08:34:05;96277.44;;;4.41;75.05
6132;BME280;3097;42.692;23.278;2023-02-14T08:36:31;96269.94;;;4.40;74.59
6132;BME280;3097;42.692;23.278;2023-02-14T08:38:57;96275.38;;;4.45;75.19
6132;BME280;3097;42.692;23.278;2023-02-14T08:41:23;96283.25;;;4.51;74.58
6132;BME280;3097;42.692;23.278;2023-02-14T08:43:49;96278.25;;;4.42;74.47
6132;BME280;3097;42.692;23.278;2023-02-14T08:46:14;96285.97;;;4.32;75.54
6132;BME280;3097;42.692;23.278;2023-02-14T08:48:41;96282.91;;;4.28;75.64
6132;BME280;3097;42.692;23.278;2023-02-14T08:51:08;96282.28;;;4.26;76.39
6132;BME280;3097;42.692;23.278;2023-02-14T08:53:35;96253.91;;;4.12;76.30
6132;BME280;3097;42.692;23.278;2023-02-14T08:56:02;96291.00;;;4.06;77.29
6132;BME280;3097;42.692;23.278;2023-02-14T08:58:28;96284.03;;;4.08;77.73
6132;BME280;3097;42.692;23.278;2023-02-14T09:00:53;96279.88;;;4.07;78.07
6132;BME280;3097;42.692;23.278;2023-02-14T09:03:20;96255.25;;;3.98;78.03
6132;BME280;3097;42.692;23.278;2023-02-14T09:05:45;96280.72;;;4.34;77.35
6132;BME280;3097;42.692;23.278;2023-02-14T09:08:11;96277.59;;;4.40;76.43
6132;BME280;3097;42.692;23.278;2023-02-14T09:10:36;96274.97;;;4.32;76.99
6132;BME280;3097;42.692;23.278;2023-02-14T09:13:02;96273.56;;;4.37;76.50
6132;BME280;3097;42.692;23.278;2023-02-14T09:15:28;96272.47;;;4.40;76.51
6132;BME280;3097;42.692;23.278;2023-02-14T09:17:53;96258.25;;;4.37;76.46
6132;BME280;3097;42.692;23.278;2023-02-14T09:20:19;96257.56;;;4.53;76.12
6132;BME280;3097;42.692;23.278;2023-02-14T09:22:44;96260.97;;;4.61;75.01
6132;BME280;3097;42.692;23.278;2023-02-14T09:25:10;96257.47;;;4.62;75.36
6132;BME280;3097;42.692;23.278;2023-02-14T09:27:36;96256.38;;;4.65;74.73
6132;BME280;3097;42.692;23.278;2023-02-14T09:30:02;96259.75;;;4.65;74.99
6132;BME280;3097;42.692;23.278;2023-02-14T09:32:29;96237.13;;;4.53;74.66
6132;BME280;3097;42.692;23.278;2023-02-14T09:34:55;96218.34;;;4.36;74.07
6132;BME280;3097;42.692;23.278;2023-02-14T09:37:21;96263.84;;;4.58;75.13
6132;BME280;3097;42.692;23.278;2023-02-14T09:39:46;96246.28;;;4.38;74.68
6132;BME280;3097;42.692;23.278;2023-02-14T09:42:25;96260.06;;;4.45;74.81
6132;BME280;3097;42.692;23.278;2023-02-14T09:45:15;96258.50;;;4.52;74.83
6132;BME280;3097;42.692;23.278;2023-02-14T09:47:46;96264.63;;;4.59;75.10
6132;BME280;3097;42.692;23.278;2023-02-14T09:53:15;96259.00;;;4.73;73.21
6132;BME280;3097;42.692;23.278;2023-02-14T09:55:53;96250.66;;;4.71;73.66
6132;BME280;3097;42.692;23.278;2023-02-14T09:58:43;96257.75;;;4.59;73.96
6132;BME280;3097;42.692;23.278;2023-02-14T10:01:25;96249.75;;;4.54;74.26
6132;BME280;3097;42.692;23.278;2023-02-14T10:12:44;96211.78;;;4.08;75.11
6132;BME280;3097;42.692;23.278;2023-02-14T10:15:23;96238.78;;;4.36;75.33
6132;BME280;3097;42.692;23.278;2023-02-14T10:17:54;96241.84;;;4.40;74.38
6132;BME280;3097;42.692;23.278;2023-02-14T10:20:29;96231.56;;;4.32;74.67
6132;BME280;3097;42.692;23.278;2023-02-14T10:23:44;96208.34;;;4.17;74.54
6132;BME280;3097;42.692;23.278;2023-02-14T10:26:03;96239.16;;;4.41;73.98
6132;BME280;3097;42.692;23.278;2023-02-14T10:28:39;96230.59;;;4.50;73.74
6132;BME280;3097;42.692;23.278;2023-02-14T10:33:37;96223.84;;;4.41;72.64
6132;BME280;3097;42.692;23.278;2023-02-14T10:36:20;96241.66;;;4.15;73.49
6132;BME280;3097;42.692;23.278;2023-02-14T10:41:50;96229.78;;;4.06;74.81
6132;BME280;3097;42.692;23.278;2023-02-14T10:44:31;96236.13;;;4.02;74.84
6132;BME280;3097;42.692;23.278;2023-02-14T10:49:43;96220.28;;;3.91;74.91
6132;BME280;3097;42.692;23.278;2023-02-14T10:54:45;96238.03;;;4.00;75.35
6132;BME280;3097;42.692;23.278;2023-02-14T10:57:35;96192.63;;;3.86;75.75
6132;BME280;3097;42.692;23.278;2023-02-14T11:00:06;96215.50;;;4.13;74.46
6132;BME280;3097;42.692;23.278;2023-02-14T11:02:38;96203.50;;;4.06;75.17
6132;BME280;3097;42.692;23.278;2023-02-14T11:05:06;96188.53;;;3.93;74.33
6132;BME280;3097;42.692;23.278;2023-02-14T11:07:32;96196.91;;;4.03;74.82
6132;BME280;3097;42.692;23.278;2023-02-14T11:09:57;96212.22;;;4.21;73.96
6132;BME280;3097;42.692;23.278;2023-02-14T11:12:33;96214.75;;;4.21;73.84
6132;BME280;3097;42.692;23.278;2023-02-14T11:15:29;96214.00;;;4.28;72.39
6132;BME280;3097;42.692;23.278;2023-02-14T11:20:32;96215.91;;;4.26;72.52
6132;BME280;3097;42.692;23.278;2023-02-14T11:22:58;96201.50;;;4.17;72.24
6132;BME280;3097;42.692;23.278;2023-02-14T11:25:28;96199.69;;;4.10;72.04
6132;BME280;3097;42.692;23.278;2023-02-14T11:28:04;96203.09;;;4.01;72.21
6132;BME280;3097;42.692;23.278;2023-02-14T11:30:39;96197.59;;;3.87;73.40
6132;BME280;3097;42.692;23.278;2023-02-14T11:35:56;96192.34;;;3.89;73.27
6132;BME280;3097;42.692;23.278;2023-02-14T11:38:29;96179.66;;;3.97;73.23
6132;BME280;3097;42.692;23.278;2023-02-14T11:40:56;96123.06;;;3.76;71.76
6132;BME280;3097;42.692;23.278;2023-02-14T11:43:32;96182.75;;;4.09;71.75
6132;BME280;3097;42.692;23.278;2023-02-14T11:49:05;96169.84;;;4.28;69.71
6132;BME280;3097;42.692;23.278;2023-02-14T11:51:47;96057.22;;;3.54;69.78
6132;BME280;3097;42.692;23.278;2023-02-14T12:04:44;96177.34;;;4.63;68.09
6132;BME280;3097;42.692;23.278;2023-02-14T12:07:24;96130.13;;;4.34;69.02
6132;BME280;3097;42.692;23.278;2023-02-14T12:20:54;96143.03;;;4.58;69.84
6132;BME280;3097;42.692;23.278;2023-02-14T12:23:39;96150.69;;;4.58;69.35
6132;BME280;3097;42.692;23.278;2023-02-14T12:26:26;96150.31;;;4.53;69.64
6132;BME280;3097;42.692;23.278;2023-02-14T12:29:11;96138.53;;;4.60;69.88
6132;BME280;3097;42.692;23.278;2023-02-14T12:31:40;96143.72;;;4.76;69.23
6132;BME280;3097;42.692;23.278;2023-02-14T12:34:10;96134.31;;;4.77;69.17
6132;BME280;3097;42.692;23.278;2023-02-14T12:37:06;96135.13;;;4.77;69.37
6132;BME280;3097;42.692;23.278;2023-02-14T12:42:34;96147.63;;;4.96;67.94
6132;BME280;3097;42.692;23.278;2023-02-14T12:45:18;96141.50;;;4.81;68.92
6132;BME280;3097;42.692;23.278;2023-02-14T12:48:22;96136.41;;;4.89;68.31
6132;BME280;3097;42.692;23.278;2023-02-14T13:04:47;96132.69;;;5.34;67.77
6132;BME280;3097;42.692;23.278;2023-02-14T13:07:28;96102.34;;;5.23;67.34
6132;BME280;3097;42.692;23.278;2023-02-14T13:10:04;96130.00;;;5.43;67.37
6132;BME280;3097;42.692;23.278;2023-02-14T13:13:55;96125.06;;;5.50;67.40
6132;BME280;3097;42.692;23.278;2023-02-14T13:16:01;96122.84;;;5.55;67.12
6132;BME280;3097;42.692;23.278;2023-02-14T13:19:01;96121.53;;;5.51;67.47
6132;BME280;3097;42.692;23.278;2023-02-14T13:21:33;96118.34;;;5.49;67.41
6132;BME280;3097;42.692;23.278;2023-02-14T13:24:12;96114.03;;;5.58;66.51
6132;BME280;3097;42.692;23.278;2023-02-14T13:26:42;96112.91;;;5.52;67.24
6132;BME280;3097;42.692;23.278;2023-02-14T13:29:13;96120.91;;;5.33;67.34
6132;BME280;3097;42.692;23.278;2023-02-14T13:31:40;96121.81;;;5.16;68.08
6132;BME280;3097;42.692;23.278;2023-02-14T13:36:34;96109.66;;;5.01;69.53
6132;BME280;3097;42.692;23.278;2023-02-14T13:39:02;96091.13;;;4.99;69.39
6132;BME280;3097;42.692;23.278;2023-02-14T13:41:29;96111.75;;;5.14;69.33
6132;BME280;3097;42.692;23.278;2023-02-14T13:43:58;96099.63;;;5.16;68.88
6132;BME280;3097;42.692;23.278;2023-02-14T13:49:24;96106.34;;;5.33;68.18
6132;BME280;3097;42.692;23.278;2023-02-14T13:51:56;96102.34;;;5.23;68.82
6132;BME280;3097;42.692;23.278;2023-02-14T13:54:30;96104.25;;;5.21;69.02
6132;BME280;3097;42.692;23.278;2023-02-14T13:56:56;96113.22;;;5.33;68.05
6132;BME280;3097;42.692;23.278;2023-02-14T13:59:31;96110.03;;;5.31;67.49
6132;BME280;3097;42.692;23.278;2023-02-14T14:04:50;96113.31;;;5.07;69.04
6132;BME280;3097;42.692;23.278;2023-02-14T14:07:17;96112.84;;;5.12;69.26
6132;BME280;3097;42.692;23.278;2023-02-14T14:17:35;96118.25;;;5.00;69.86
6132;BME280;3097;42.692;23.278;2023-02-14T14:20:48;96121.94;;;5.06;69.42
6132;BME280;3097;42.692;23.278;2023-02-14T14:22:54;96118.09;;;4.94;69.74
6132;BME280;3097;42.692;23.278;2023-02-14T14:25:37;96122.72;;;4.98;70.09
6132;BME280;3097;42.692;23.278;2023-02-14T14:28:18;96007.25;;;4.20;69.63
6132;BME280;3097;42.692;23.278;2023-02-14T14:30:45;96099.50;;;4.76;70.40
6132;BME280;3097;42.692;23.278;2023-02-14T14:33:20;96115.97;;;4.89;70.46
6132;BME280;3097;42.692;23.278;2023-02-14T14:35:52;96103.06;;;4.91;70.49
6132;BME280;3097;42.692;23.278;2023-02-14T14:38:18;96098.94;;;4.98;70.35
6132;BME280;3097;42.692;23.278;2023-02-14T14:40:44;96080.59;;;5.02;69.82
6132;BME280;3097;42.692;23.278;2023-02-14T14:43:17;96085.69;;;5.02;69.89
6132;BME280;3097;42.692;23.278;2023-02-14T14:45:47;96084.88;;;4.94;70.36
6132;BME280;3097;42.692;23.278;2023-02-14T14:48:17;96090.16;;;5.00;70.33
6132;BME280;3097;42.692;23.278;2023-02-14T14:50:46;96004.31;;;4.49;70.38
6132;BME280;3097;42.692;23.278;2023-02-14T14:53:31;96089.84;;;5.12;70.32
6132;BME280;3097;42.692;23.278;2023-02-14T14:56:00;96051.53;;;5.03;69.83
6132;BME280;3097;42.692;23.278;2023-02-14T14:58:38;96087.66;;;5.25;69.47
6132;BME280;3097;42.692;23.278;2023-02-14T15:01:08;96096.75;;;5.27;69.37
6132;BME280;3097;42.692;23.278;2023-02-14T15:03:35;96087.94;;;5.22;69.30
6132;BME280;3097;42.692;23.278;2023-02-14T15:06:18;96075.50;;;5.19;69.16
6132;BME280;3097;42.692;23.278;2023-02-14T15:08:45;96092.44;;;5.36;68.76
6132;BME280;3097;42.692;23.278;2023-02-14T15:11:23;96086.06;;;5.40;68.18
6132;BME280;3097;42.692;23.278;2023-02-14T15:14:13;96099.81;;;5.39;68.16
6132;BME280;3097;42.692;23.278;2023-02-14T15:16:44;96105.88;;;5.38;67.60
6132;BME280;3097;42.692;23.278;2023-02-14T15:19:24;96112.53;;;5.15;68.08
6132;BME280;3097;42.692;23.278;2023-02-14T15:21:55;96112.22;;;5.10;68.82
6132;BME280;3097;42.692;23.278;2023-02-14T15:24:21;96108.06;;;5.09;68.51
6132;BME280;3097;42.692;23.278;2023-02-14T15:26:47;96110.44;;;5.02;68.68
6132;BME280;3097;42.692;23.278;2023-02-14T15:29:28;96083.25;;;4.85;68.81
6132;BME280;3097;42.692;23.278;2023-02-14T15:31:56;96104.84;;;4.98;69.29
6132;BME280;3097;42.692;23.278;2023-02-14T15:34:24;96110.63;;;5.09;68.85
6132;BME280;3097;42.692;23.278;2023-02-14T15:36:53;96112.72;;;5.21;68.68
6132;BME280;3097;42.692;23.278;2023-02-14T15:39:27;96113.22;;;5.33;68.04
6132;BME280;3097;42.692;23.278;2023-02-14T15:41:53;96111.47;;;5.25;67.71
6132;BME280;3097;42.692;23.278;2023-02-14T15:44:21;96108.41;;;5.30;67.58